Terminal Aerodrome Forecast
Issued by NWS

Home | Current Version | Previous Version | Text Only | Print | Product List | Glossary Off
Versions: 1 2 3 4 5 6 7 8 9 10 11 12 13 14 15 16 17 18 19 20

029
FTUS43 KABR 250534
TAFPIR
TAF
KPIR 250534Z 2506/2606 08004KT P6SM SKC
     FM251000 25007KT P6SM SCT250
     FM251100 03009KT P6SM SCT250
     FM252200 05014G21KT P6SM SHRA VCTS BKN050CB=

USA.gov is the U.S. government's official web portal to all federal, state and local government web resources and services.